Jordan, MN (55352)

1:35 AM CDT on October 01, 2014 (GMT -0500)
RAWS MN VALLEY MN US | Change Station
CLOSE
Current Station
Personal Weather Station
Location: Carver, MN
Elevation: 845 ft
Nearby Weather Stations

Elev 845 ft 44.72 °N, 93.64 °W | Updated 46 minutes ago

Mostly Cloudy
Mostly Cloudy
54 °F
Feels Like 54 °F
N
4
Wind Variable Wind from SE
Gusts 9.0 mph

Today
High -- | Low -- °F
--% Chance of Precip.
Yesterday
High -- | Low -- °F
Precip. -- in
7:12 AM 6:55 PM
Waxing Crescent, 44% visible
Pressure 29.86 in
Visibility 10.0 miles
Clouds Mostly Cloudy 8000 ft
Dew Point 48 °F
Humidity 80%
Rainfall 0.00 in
Snow Depth Not available.
UV 0 out of 12
Pollen .90 out of 12
Ozone Good
PM2.5 Good
Flu Activity Not available.
METAR KFCM 010553Z AUTO 13011KT 10SM BKN080 12/08 A2985 RMK AO2 SLP111 60000 T01170083 10133 20117 401500056 50007

More Conditions Fewer Conditions

Pressure 29.86 in
Visibility 10.0 miles
Clouds Mostly Cloudy 8000 ft
Dew Point 48 °F
Humidity 80%
Rainfall 0.00 in
Snow Depth Not available.
UV 0 out of 12
Pollen .90 out of 12
Ozone Good
PM2.5 Good
Flu Activity Not available.
METAR KFCM 010553Z AUTO 13011KT 10SM BKN080 12/08 A2985 RMK AO2 SLP111 60000 T01170083 10133 20117 401500056 50007

More Conditions Fewer Conditions

10-Day Weather Forecast

Almanac

Astronomy

Oct. 01, 2014 Rise Set
Actual Time 7:12 AM CDT 6:55 PM CDT
Civil Twilight 6:43 AM CDT 7:24 PM CDT
Nautical Twilight 6:09 AM CDT 7:57 PM CDT
Astronomical Twilight 5:35 AM CDT 8:32 PM CDT
Moon 2:24 PM CDT No Moon Set
Length of Visible Light 12h 40m
Length of Day
11h 42m
Tomorrow will be 3m 5s shorter.
Waxing Crescent, 44% of the Moon is Illuminated
Today
Waxing Crescent
Oct 1
First Quarter
Oct 8
Full
Oct 15
Last Quarter
Oct 23
New

Today's Extremes

State Highs State Lows

Community

WunderPhotos

Upload Photos

1,757,886 photos uploaded!

Nearby

Air Quality

  Air Quality AQ Index Pollutant
Yesterday Good
OZONE
Yesterday Good
PM2.5
Current Good
PM2.5
Current Good
OZONE
Wednesday Good
PM2.5
Wednesday Good
OZONE
Thursday Good
OZONE
Thursday Good
PM2.5
Friday Good
OZONE
Friday Good
PM2.5
Saturday Good
OZONE
Saturday Good
PM2.5
Sunday Good
OZONE
Sunday Good
PM2.5

Snow Depth

Station Depth Elevation
No new snow has been reported.

Earthquake Activity

City Distance Mag. Time & Date
No recent earthquake activity has been reported nearby.
Minimum magnitude displayed is 2.5.

Coastal Water Temperatures

Place Temperature
No Stations Reporting

Nearby Weather Stations